Time;durP1;ratioP1;P1;durP2;ratioP2;P2;SDS_P1;SDS_P2;PMS_P1;PMS_P2;Temp;Humidity;BMP_temperature;BMP_pressure;BME280_temperature;BME280_humidity;BME280_pressure;Samples;Min_cycle;Max_cycle;Signal;HPM_P1;HPM_P2
2021/10/25 00:02:20;;;;;;;8.77;5.50;;;10.10;89.20;;;;;;5094243;28;20628;-79
2021/10/25 00:04:46;;;;;;;8.00;5.93;;;10.10;89.60;;;;;;5075888;28;20180;-79
2021/10/25 00:07:12;;;;;;;9.17;5.57;;;10.20;89.20;;;;;;5094164;28;20172;-79
2021/10/25 00:09:38;;;;;;;10.03;5.20;;;10.20;88.90;;;;;;5094874;28;20194;-80
2021/10/25 00:12:05;;;;;;;9.47;5.73;;;10.10;89.90;;;;;;5077287;28;20176;-79
2021/10/25 00:14:30;;;;;;;8.43;5.50;;;10.20;90.20;;;;;;5096436;28;20171;-80
2021/10/25 00:16:56;;;;;;;8.30;5.20;;;10.20;89.70;;;;;;5076837;28;20266;-80
2021/10/25 00:19:22;;;;;;;8.00;5.70;;;10.20;90.00;;;;;;5075786;28;20579;-79
2021/10/25 00:21:49;;;;;;;6.73;5.37;;;10.20;90.00;;;;;;5094467;28;20168;-80
2021/10/25 00:24:15;;;;;;;9.13;5.03;;;10.30;90.30;;;;;;5093396;28;20202;-79
2021/10/25 00:26:41;;;;;;;10.50;5.27;;;10.30;90.00;;;;;;5093447;28;20172;-80
2021/10/25 00:29:06;;;;;;;8.83;5.23;;;10.40;90.20;;;;;;5093681;28;20787;-79
2021/10/25 00:31:32;;;;;;;8.97;5.80;;;10.40;89.90;;;;;;5093557;28;20589;-79
2021/10/25 00:33:58;;;;;;;10.03;6.00;;;10.50;88.60;;;;;;5093114;28;20254;-80
2021/10/25 00:36:24;;;;;;;9.30;5.47;;;10.40;88.30;;;;;;5106361;28;20255;-77
2021/10/25 00:38:50;;;;;;;7.73;5.50;;;10.60;87.70;;;;;;5114161;28;20241;-81
2021/10/25 00:41:15;;;;;;;12.17;6.40;;;10.50;88.10;;;;;;5095062;28;20194;-79
2021/10/25 00:43:41;;;;;;;10.80;6.07;;;10.40;87.80;;;;;;5077172;28;20178;-79
2021/10/25 00:46:08;;;;;;;9.27;6.63;;;10.40;88.20;;;;;;5093733;28;20168;-80
2021/10/25 00:48:34;;;;;;;10.80;6.63;;;10.50;88.00;;;;;;5075104;28;20191;-80
2021/10/25 00:51:01;;;;;;;10.77;6.37;;;10.40;87.80;;;;;;5093767;28;20538;-80
2021/10/25 00:53:27;;;;;;;9.93;6.47;;;10.40;88.30;;;;;;5077063;28;20501;-79
2021/10/25 00:55:53;;;;;;;9.40;6.60;;;10.50;87.60;;;;;;5077249;28;20588;-79
2021/10/25 00:58:19;;;;;;;9.57;6.83;;;10.50;86.40;;;;;;5075108;28;20215;-79
2021/10/25 01:00:45;;;;;;;9.67;6.93;;;10.40;87.60;;;;;;5103550;28;20254;-78
2021/10/25 01:03:10;;;;;;;13.90;7.30;;;10.50;88.50;;;;;;5096692;28;20195;-78
2021/10/25 01:05:36;;;;;;;9.83;6.83;;;10.50;88.20;;;;;;5090227;28;20244;-79
2021/10/25 01:08:04;;;;;;;10.57;7.07;;;10.40;88.40;;;;;;5076275;28;20245;-78
2021/10/25 01:10:29;;;;;;;13.27;7.10;;;10.50;88.90;;;;;;5102941;28;20227;-77
2021/10/25 01:12:57;;;;;;;10.37;6.97;;;10.50;88.60;;;;;;5114385;28;20191;-78
2021/10/25 01:15:24;;;;;;;9.67;6.83;;;10.50;88.70;;;;;;5114855;28;20164;-78
2021/10/25 01:17:54;;;;;;;10.67;6.30;;;10.50;89.30;;;;;;5093957;28;20175;-78
2021/10/25 01:20:20;;;;;;;11.80;7.77;;;10.50;89.10;;;;;;5093472;28;20258;-79
2021/10/25 01:22:46;;;;;;;7.90;5.73;;;10.50;89.20;;;;;;5093093;28;20166;-79
2021/10/25 01:25:12;;;;;;;11.30;6.50;;;10.60;88.20;;;;;;5092833;28;20175;-79
2021/10/25 01:27:37;;;;;;;11.77;6.50;;;10.50;88.10;;;;;;5075448;28;20626;-79
2021/10/25 01:30:04;;;;;;;8.60;6.07;;;10.50;89.20;;;;;;5074653;28;20175;-79
2021/10/25 01:32:30;;;;;;;10.60;6.63;;;10.70;89.00;;;;;;5074310;28;20179;-78
2021/10/25 01:34:56;;;;;;;10.37;6.40;;;10.70;85.90;;;;;;5074636;28;20175;-80
2021/10/25 01:37:23;;;;;;;8.33;6.00;;;10.70;84.60;;;;;;5095294;28;20646;-79
2021/10/25 01:39:48;;;;;;;9.00;6.47;;;10.80;83.90;;;;;;5078432;28;20218;-79
2021/10/25 01:42:14;;;;;;;8.77;5.57;;;10.80;82.70;;;;;;5078551;28;20536;-79
2021/10/25 01:44:40;;;;;;;9.03;6.07;;;10.80;83.20;;;;;;5078618;28;20693;-79
2021/10/25 01:47:06;;;;;;;11.10;5.60;;;10.80;83.40;;;;;;5096221;28;20164;-79
2021/10/25 01:49:32;;;;;;;8.37;5.80;;;10.80;83.50;;;;;;5078289;28;20179;-79
2021/10/25 01:51:58;;;;;;;9.93;6.17;;;10.80;83.30;;;;;;5078730;28;20218;-79
2021/10/25 01:54:24;;;;;;;7.87;5.73;;;10.80;83.20;;;;;;5078247;28;20318;-80
2021/10/25 01:56:50;;;;;;;7.60;4.87;;;10.70;84.10;;;;;;5078423;28;20179;-78
2021/10/25 01:59:15;;;;;;;8.97;4.90;;;10.70;83.60;;;;;;5078145;28;20212;-79
2021/10/25 02:01:41;;;;;;;9.23;4.97;;;10.70;83.40;;;;;;5096647;28;20167;-79
2021/10/25 02:04:06;;;;;;;8.63;5.20;;;10.70;84.60;;;;;;5096986;28;20542;-78
2021/10/25 02:06:33;;;;;;;6.93;4.33;;;10.70;84.60;;;;;;5096374;28;20184;-78
2021/10/25 02:09:00;;;;;;;8.10;4.50;;;10.80;85.00;;;;;;5078610;28;20203;-79
2021/10/25 02:11:26;;;;;;;7.10;4.57;;;10.70;85.20;;;;;;5096113;28;20174;-79
2021/10/25 02:13:52;;;;;;;7.60;4.33;;;10.80;84.30;;;;;;5096641;28;20187;-79
2021/10/25 02:16:18;;;;;;;9.03;4.33;;;10.80;83.50;;;;;;5079323;28;20174;-78
2021/10/25 02:18:44;;;;;;;6.97;4.23;;;10.80;82.50;;;;;;5080641;28;20298;-78
2021/10/25 02:21:11;;;;;;;6.30;4.07;;;10.90;81.50;;;;;;5078574;28;20172;-79
2021/10/25 02:23:38;;;;;;;5.83;3.73;;;10.90;80.50;;;;;;5077815;28;20172;-79
2021/10/25 02:26:04;;;;;;;6.87;3.63;;;10.80;80.80;;;;;;5077643;28;20179;-79
2021/10/25 02:28:34;;;;;;;7.20;4.00;;;10.90;80.20;;;;;;5086929;28;20168;-79
2021/10/25 02:31:00;;;;;;;6.27;3.97;;;10.90;79.80;;;;;;5105105;28;20190;-79
2021/10/25 02:33:26;;;;;;;6.93;4.20;;;10.80;79.90;;;;;;5095389;28;20898;-79
2021/10/25 02:35:51;;;;;;;7.87;3.97;;;10.80;81.50;;;;;;5095744;28;20183;-79
2021/10/25 02:38:18;;;;;;;7.73;4.20;;;10.80;81.20;;;;;;5095682;28;20188;-79
2021/10/25 02:40:44;;;;;;;5.03;3.63;;;10.90;78.60;;;;;;5101629;28;20224;-79
2021/10/25 02:43:10;;;;;;;5.87;3.70;;;10.80;79.10;;;;;;5102473;28;20203;-78
2021/10/25 02:45:37;;;;;;;9.63;4.20;;;10.90;78.80;;;;;;5086613;28;20537;-78
2021/10/25 02:48:05;;;;;;;6.47;4.00;;;11.00;77.80;;;;;;5096686;28;20152;-79
2021/10/25 02:50:32;;;;;;;6.33;4.17;;;11.00;73.10;;;;;;5106951;28;20167;-78
2021/10/25 02:52:58;;;;;;;6.63;3.70;;;11.00;71.30;;;;;;5086985;28;20176;-79
2021/10/25 02:55:24;;;;;;;5.67;3.80;;;11.00;72.00;;;;;;5095740;28;20646;-79
2021/10/25 02:57:49;;;;;;;5.10;4.00;;;10.90;74.10;;;;;;5095615;28;20484;-79
2021/10/25 03:00:17;;;;;;;4.90;3.90;;;10.80;75.20;;;;;;5094626;28;20642;-79
2021/10/25 03:02:44;;;;;;;7.23;4.10;;;10.80;76.20;;;;;;5095316;28;20198;-79
2021/10/25 03:05:11;;;;;;;8.73;3.87;;;10.80;79.30;;;;;;5077223;28;20186;-79
2021/10/25 03:07:36;;;;;;;7.53;3.47;;;10.90;78.70;;;;;;5077115;28;20579;-79
2021/10/25 03:10:04;;;;;;;4.93;4.10;;;10.90;78.30;;;;;;5077281;28;20200;-78
2021/10/25 03:12:29;;;;;;;7.37;4.07;;;11.00;77.50;;;;;;5076727;28;20210;-79
2021/10/25 03:14:55;;;;;;;6.10;3.67;;;11.00;74.80;;;;;;5094939;28;20171;-78
2021/10/25 03:17:21;;;;;;;5.70;3.80;;;11.10;73.90;;;;;;5076365;28;20590;-80
2021/10/25 03:19:47;;;;;;;4.43;3.60;;;11.30;70.60;;;;;;5093938;28;20216;-79
2021/10/25 03:22:14;;;;;;;6.67;4.00;;;11.40;65.50;;;;;;5076615;28;20176;-77
2021/10/25 03:24:42;;;;;;;7.93;3.50;;;11.40;63.50;;;;;;5095270;28;20178;-79
2021/10/25 03:27:08;;;;;;;6.50;3.80;;;11.30;65.40;;;;;;5095503;28;20194;-79
2021/10/25 03:29:33;;;;;;;7.33;4.40;;;11.30;67.00;;;;;;5096176;28;20536;-79
2021/10/25 03:32:00;;;;;;;7.60;3.73;;;11.40;65.90;;;;;;5095394;28;20179;-79
2021/10/25 03:34:27;;;;;;;6.83;3.70;;;11.30;65.60;;;;;;5094664;28;20175;-79
2021/10/25 03:36:53;;;;;;;7.90;4.10;;;11.30;67.40;;;;;;5095158;28;20262;-79
2021/10/25 03:39:23;;;;;;;5.20;3.50;;;11.20;70.50;;;;;;5105493;28;20203;-78
2021/10/25 03:41:50;;;;;;;5.73;4.07;;;11.20;72.00;;;;;;5114938;28;20600;-78
2021/10/25 03:51:38;;;;;;;4.83;3.43;;;11.30;71.30;;;;;;5095188;28;20164;-79
2021/10/25 03:54:34;;;;;;;7.43;3.93;;;11.40;69.10;;;;;;5094798;28;20164;-79
2021/10/25 04:26:14;;;;;;;12.03;7.93;;;11.50;66.00;;;;;;5093926;28;20186;-79
2021/10/25 04:28:40;;;;;;;11.37;7.00;;;11.50;67.80;;;;;;5093073;28;20324;-79
2021/10/25 04:31:07;;;;;;;10.07;5.73;;;11.40;69.40;;;;;;5109652;28;20163;-79
2021/10/25 04:33:34;;;;;;;9.60;5.23;;;11.30;72.20;;;;;;5077735;28;20643;-79
2021/10/25 04:36:00;;;;;;;7.63;5.37;;;11.30;74.10;;;;;;5094358;28;20664;-80
2021/10/25 04:38:26;;;;;;;7.30;4.70;;;11.30;74.60;;;;;;5075582;28;20210;-80
2021/10/25 04:40:51;;;;;;;7.53;4.37;;;11.30;75.90;;;;;;5074948;28;20179;-79
2021/10/25 04:43:18;;;;;;;8.00;4.00;;;11.30;76.90;;;;;;5092909;28;20616;-79
2021/10/25 04:45:46;;;;;;;6.87;4.27;;;11.30;76.40;;;;;;5075860;28;20175;-78
2021/10/25 04:48:12;;;;;;;7.97;4.30;;;11.30;78.40;;;;;;5076096;28;20249;-79
2021/10/25 04:50:38;;;;;;;5.27;3.70;;;11.20;78.80;;;;;;5094197;28;20168;-78
2021/10/25 04:53:05;;;;;;;8.10;4.23;;;11.30;78.30;;;;;;5093611;28;20171;-79
2021/10/25 04:55:30;;;;;;;6.07;3.57;;;11.30;78.00;;;;;;5075792;28;20646;-80
2021/10/25 04:57:56;;;;;;;5.70;3.87;;;11.30;77.70;;;;;;5094085;28;20180;-79
2021/10/25 05:00:22;;;;;;;6.77;3.50;;;11.30;77.20;;;;;;5077215;28;20634;-80
2021/10/25 05:02:47;;;;;;;7.93;3.70;;;11.30;77.50;;;;;;5097654;28;20163;-79
2021/10/25 05:05:13;;;;;;;5.20;3.73;;;11.40;77.50;;;;;;5078632;28;20180;-79
2021/10/25 05:07:39;;;;;;;6.60;3.63;;;11.30;77.70;;;;;;5094134;28;20183;-79
2021/10/25 05:10:05;;;;;;;8.10;3.53;;;11.30;80.20;;;;;;5093916;28;20194;-81
2021/10/25 05:12:32;;;;;;;8.13;3.40;;;11.30;80.20;;;;;;5097567;28;20176;-80
2021/10/25 05:14:58;;;;;;;6.77;3.83;;;11.30;79.70;;;;;;5097648;28;20221;-80
2021/10/25 05:17:24;;;;;;;6.03;3.90;;;11.30;78.80;;;;;;5078680;28;20177;-79
2021/10/25 05:19:51;;;;;;;7.47;3.70;;;11.40;79.50;;;;;;5078930;28;20210;-80
2021/10/25 05:22:17;;;;;;;7.67;3.60;;;11.40;79.20;;;;;;5097316;28;20163;-79
2021/10/25 05:24:44;;;;;;;6.73;4.27;;;11.50;78.70;;;;;;5097429;28;20169;-83
2021/10/25 05:27:11;;;;;;;7.73;5.40;;;11.50;77.60;;;;;;5081918;28;20167;-79
2021/10/25 05:29:37;;;;;;;9.13;4.63;;;11.50;77.80;;;;;;5092733;28;20151;-81
2021/10/25 05:32:04;;;;;;;7.83;3.77;;;11.60;77.60;;;;;;5119631;28;20227;-80
2021/10/25 05:34:31;;;;;;;7.30;3.80;;;11.50;76.30;;;;;;5117654;28;20229;-78
2021/10/25 05:36:57;;;;;;;6.20;3.93;;;11.60;73.50;;;;;;5118838;28;20151;-79
2021/10/25 05:39:23;;;;;;;8.13;4.13;;;11.70;72.70;;;;;;5092801;28;20302;-79
2021/10/25 05:41:50;;;;;;;7.27;4.00;;;11.60;72.30;;;;;;5080945;28;20689;-81
2021/10/25 05:44:16;;;;;;;7.93;3.90;;;11.60;71.20;;;;;;5089181;28;20734;-80
2021/10/25 05:46:41;;;;;;;6.37;3.60;;;11.60;70.60;;;;;;5099537;27;20221;-80
2021/10/25 05:49:07;;;;;;;10.90;4.10;;;11.50;71.90;;;;;;5116830;28;20180;-79
2021/10/25 05:51:33;;;;;;;8.57;4.60;;;11.50;73.70;;;;;;5113526;28;20176;-79
2021/10/25 05:54:03;;;;;;;7.00;3.50;;;11.40;75.10;;;;;;5087358;28;20184;-80
2021/10/25 05:56:29;;;;;;;5.60;3.90;;;11.40;77.40;;;;;;5139125;27;20164;-79
2021/10/25 05:58:55;;;;;;;6.73;4.07;;;11.40;76.70;;;;;;5137841;28;20203;-79
2021/10/25 06:01:27;;;;;;;8.07;3.67;;;11.40;78.10;;;;;;5100050;28;20175;-81
2021/10/25 06:03:59;;;;;;;8.90;4.33;;;11.40;76.80;;;;;;5099109;28;20170;-80
2021/10/25 06:06:32;;;;;;;7.23;4.00;;;11.50;75.60;;;;;;5117295;28;20168;-80
2021/10/25 06:08:59;;;;;;;7.37;4.00;;;11.50;74.60;;;;;;5117007;28;20194;-80
2021/10/25 06:11:25;;;;;;;9.13;4.20;;;11.50;75.20;;;;;;5098632;28;20171;-80
2021/10/25 06:13:54;;;;;;;7.40;3.97;;;11.50;75.90;;;;;;5095023;28;20176;-79
2021/10/25 06:16:25;;;;;;;8.87;3.67;;;11.50;77.10;;;;;;5095291;28;20215;-82
2021/10/25 06:18:50;;;;;;;9.87;4.43;;;11.60;77.20;;;;;;5098275;28;20203;-81
2021/10/25 06:21:16;;;;;;;9.40;3.77;;;11.60;75.90;;;;;;5084230;28;20176;-79
2021/10/25 06:23:42;;;;;;;6.90;4.17;;;11.50;75.90;;;;;;5097448;28;20217;-82
2021/10/25 06:26:08;;;;;;;7.03;3.73;;;11.50;74.00;;;;;;5096326;28;20213;-81
2021/10/25 06:28:34;;;;;;;11.40;4.57;;;11.60;74.30;;;;;;5095897;28;20294;-80
2021/10/25 06:31:05;;;;;;;7.73;3.97;;;11.50;74.90;;;;;;5096295;28;20563;-80
2021/10/25 06:33:49;;;;;;;8.53;4.03;;;11.60;73.90;;;;;;5095682;28;20163;-79
2021/10/25 06:36:19;;;;;;;7.23;3.97;;;11.60;73.20;;;;;;5075770;28;20184;-80
2021/10/25 06:38:54;;;;;;;8.27;4.43;;;11.70;70.90;;;;;;5075643;28;20611;-79
2021/10/25 06:41:21;;;;;;;15.63;4.63;;;11.70;70.40;;;;;;5077392;28;20194;-79
2021/10/25 06:43:47;;;;;;;10.50;4.27;;;11.70;70.10;;;;;;5095789;28;20199;-80
2021/10/25 06:46:13;;;;;;;12.67;4.57;;;11.70;71.20;;;;;;5077865;28;20624;-79
2021/10/25 06:48:39;;;;;;;9.17;4.33;;;11.70;71.00;;;;;;5095854;28;20612;-80
2021/10/25 06:51:11;;;;;;;9.33;4.97;;;11.80;66.50;;;;;;5095898;28;20167;-80
2021/10/25 06:53:38;;;;;;;8.77;4.70;;;11.90;66.80;;;;;;5096156;28;20650;-79
2021/10/25 06:56:04;;;;;;;9.93;5.13;;;12.00;65.90;;;;;;5094921;28;20206;-79
2021/10/25 06:58:32;;;;;;;8.63;5.47;;;12.00;64.60;;;;;;5095754;28;20223;-79
2021/10/25 07:00:59;;;;;;;12.63;5.17;;;11.90;62.40;;;;;;5095843;28;20269;-80
2021/10/25 07:03:25;;;;;;;11.47;5.37;;;12.10;62.60;;;;;;5096590;28;20168;-80
2021/10/25 07:05:52;;;;;;;15.97;6.30;;;12.00;62.70;;;;;;5095132;28;20221;-80
2021/10/25 07:08:17;;;;;;;12.33;5.73;;;12.00;62.50;;;;;;5095450;28;20607;-80
2021/10/25 07:10:43;;;;;;;9.57;5.50;;;12.20;60.50;;;;;;5077727;28;20227;-79
2021/10/25 07:13:09;;;;;;;12.53;6.73;;;12.10;60.50;;;;;;5077324;28;20661;-80
2021/10/25 07:15:42;;;;;;;13.33;5.97;;;12.10;59.20;;;;;;5077857;28;20533;-79
2021/10/25 07:18:38;;;;;;;11.83;6.13;;;12.10;58.90;;;;;;5077440;28;20204;-80
2021/10/25 08:07:44;;;;;;;8.13;5.37;;;12.20;60.40;;;;;;5096005;28;20183;-79
2021/10/25 08:10:35;;;;;;;8.87;5.40;;;12.20;62.80;;;;;;5080514;28;20272;-80
2021/10/25 08:13:02;;;;;;;9.53;5.17;;;12.20;63.80;;;;;;5098526;28;20568;-80
2021/10/25 08:15:40;;;;;;;10.80;5.63;;;12.30;60.70;;;;;;5097254;28;20175;-81
2021/10/25 08:18:19;;;;;;;10.87;5.80;;;12.30;62.40;;;;;;5075922;28;20179;-80
2021/10/25 08:20:46;;;;;;;10.07;5.17;;;12.30;63.40;;;;;;5076860;28;20644;-80
2021/10/25 08:23:12;;;;;;;10.77;5.40;;;12.20;69.50;;;;;;5105308;28;20231;-79
2021/10/25 08:25:53;;;;;;;11.30;4.93;;;12.10;74.80;;;;;;5107488;28;20184;-80
2021/10/25 08:28:20;;;;;;;8.93;4.83;;;12.10;78.60;;;;;;5079719;28;20172;-80
2021/10/25 08:30:46;;;;;;;10.30;5.30;;;12.20;81.90;;;;;;5094935;28;20160;-79
2021/10/25 08:41:01;;;;;;;7.67;4.83;;;12.30;88.70;;;;;;5116453;28;20167;-78
2021/10/25 08:43:27;;;;;;;10.57;5.83;;;12.30;88.80;;;;;;5100594;28;20175;-80
2021/10/25 08:46:04;;;;;;;8.57;4.73;;;12.30;89.80;;;;;;5075017;28;20251;-80
2021/10/25 08:48:34;;;;;;;8.80;5.43;;;12.30;88.40;;;;;;5093597;28;20278;-80
2021/10/25 08:51:01;;;;;;;9.20;5.60;;;12.20;88.00;;;;;;5075639;28;20160;-80
2021/10/25 08:53:46;;;;;;;9.17;5.47;;;12.30;86.00;;;;;;5075660;28;20164;-81
2021/10/25 08:56:18;;;;;;;8.77;4.73;;;12.40;82.50;;;;;;5075447;28;20667;-80
2021/10/25 08:58:52;;;;;;;11.30;5.53;;;12.50;82.80;;;;;;5075841;28;20211;-80
2021/10/25 09:01:32;;;;;;;8.43;4.97;;;12.50;82.30;;;;;;5075404;28;20631;-79
2021/10/25 09:04:12;;;;;;;12.20;6.27;;;12.50;79.20;;;;;;5094032;28;20189;-81
2021/10/25 09:06:58;;;;;;;13.90;5.60;;;12.80;73.10;;;;;;5075861;28;20213;-80
2021/10/25 09:09:25;;;;;;;10.77;5.70;;;12.90;74.00;;;;;;5074741;28;20218;-80
2021/10/25 09:12:33;;;;;;;11.90;5.50;;;12.90;71.50;;;;;;5094740;28;20188;-81
2021/10/25 09:15:07;;;;;;;8.90;5.47;;;12.90;75.40;;;;;;5079738;28;20164;-79
2021/10/25 09:17:43;;;;;;;9.93;5.63;;;12.80;80.00;;;;;;5091928;28;20186;-80
2021/10/25 09:20:13;;;;;;;9.83;5.93;;;12.80;83.20;;;;;;5085106;28;20215;-81
2021/10/25 09:22:39;;;;;;;10.70;6.70;;;12.60;85.80;;;;;;5098590;28;20171;-81
2021/10/25 09:25:08;;;;;;;11.10;6.40;;;12.50;87.50;;;;;;5076135;28;20180;-80
2021/10/25 09:27:38;;;;;;;11.90;6.57;;;12.70;88.00;;;;;;5076109;28;20191;-80
2021/10/25 09:30:17;;;;;;;15.13;7.40;;;12.80;89.30;;;;;;5075801;28;20171;-80
2021/10/25 09:32:47;;;;;;;13.50;6.83;;;12.80;88.60;;;;;;5094836;28;20167;-81
2021/10/25 09:35:21;;;;;;;11.57;6.97;;;13.00;85.30;;;;;;5076042;28;20644;-81
2021/10/25 09:37:56;;;;;;;10.23;6.40;;;13.00;83.90;;;;;;5076149;28;20179;-81
2021/10/25 09:41:00;;;;;;;9.83;6.70;;;13.10;82.60;;;;;;5075567;28;20270;-79
2021/10/25 09:46:33;;;;;;;10.70;6.53;;;13.10;81.50;;;;;;5093729;28;20192;-80
2021/10/25 09:49:10;;;;;;;11.70;6.67;;;13.10;81.90;;;;;;5093923;28;20171;-81
2021/10/25 09:51:38;;;;;;;10.73;7.10;;;13.10;84.00;;;;;;5096110;28;20216;-80
2021/10/25 09:54:05;;;;;;;11.37;6.10;;;13.10;85.80;;;;;;5077649;28;20193;-80
2021/10/25 09:56:34;;;;;;;9.57;5.50;;;13.10;86.50;;;;;;5095286;28;20183;-79
2021/10/25 09:59:28;;;;;;;12.73;7.13;;;12.90;88.40;;;;;;5080628;28;20573;-79
2021/10/25 10:01:54;;;;;;;13.00;7.70;;;12.80;90.90;;;;;;5079380;28;20270;-80
2021/10/25 10:04:20;;;;;;;12.27;6.83;;;12.80;91.50;;;;;;5080340;28;20266;-79
2021/10/25 10:06:46;;;;;;;10.57;7.60;;;12.80;91.60;;;;;;5097929;28;20192;-80
2021/10/25 10:09:14;;;;;;;13.93;7.23;;;12.80;92.20;;;;;;5096536;28;20245;-80
2021/10/25 10:11:40;;;;;;;12.50;7.90;;;12.80;91.70;;;;;;5108135;28;20647;-79
2021/10/25 10:14:07;;;;;;;11.27;7.50;;;12.90;91.40;;;;;;5097352;28;20175;-80
2021/10/25 10:16:35;;;;;;;12.07;7.30;;;13.00;91.50;;;;;;5078477;28;20180;-79
2021/10/25 10:19:06;;;;;;;11.43;7.20;;;13.00;91.00;;;;;;5096353;28;20195;-82
2021/10/25 10:21:32;;;;;;;11.57;7.27;;;13.20;90.20;;;;;;5078376;28;20176;-81
2021/10/25 10:24:09;;;;;;;11.40;7.60;;;13.20;88.70;;;;;;5096571;28;20156;-79
2021/10/25 10:26:36;;;;;;;7.83;6.17;;;13.40;84.60;;;;;;5103715;28;20202;-79
2021/10/25 10:29:12;;;;;;;9.17;5.93;;;13.30;81.40;;;;;;5108543;28;20623;-78
2021/10/25 10:31:38;;;;;;;10.07;6.17;;;13.20;83.20;;;;;;5096319;28;20178;-81
2021/10/25 10:34:14;;;;;;;8.00;5.53;;;13.30;83.30;;;;;;5078936;28;20172;-80
2021/10/25 10:36:54;;;;;;;9.50;7.57;;;13.40;82.10;;;;;;5105867;28;20168;-78
2021/10/25 10:39:25;;;;;;;10.63;5.60;;;13.40;79.60;;;;;;5104613;28;20187;-81
2021/10/25 10:41:57;;;;;;;8.27;5.90;;;13.50;76.70;;;;;;5097940;28;20173;-81
2021/10/25 10:44:29;;;;;;;11.60;5.90;;;13.60;77.10;;;;;;5078550;28;20161;-80
2021/10/25 10:47:02;;;;;;;11.80;6.30;;;13.60;74.20;;;;;;5078282;28;20181;-80
2021/10/25 10:49:34;;;;;;;10.13;5.63;;;13.80;72.90;;;;;;5078516;28;20178;-80
2021/10/25 10:52:32;;;;;;;13.13;5.87;;;13.80;71.70;;;;;;5085189;28;20230;-80
2021/10/25 11:00:28;;;;;;;10.90;6.07;;;14.00;67.80;;;;;;5098022;28;20595;-81
2021/10/25 11:03:11;;;;;;;10.13;6.67;;;14.00;69.00;;;;;;5079936;28;20176;-84
2021/10/25 11:05:42;;;;;;;12.63;6.70;;;14.10;65.50;;;;;;5100346;28;20177;-84
2021/10/25 11:08:09;;;;;;;12.80;7.23;;;14.20;62.60;;;;;;5097746;28;20265;-84
2021/10/25 11:10:39;;;;;;;15.43;8.83;;;14.00;62.60;;;;;;5077142;28;20176;-84
2021/10/25 11:13:15;;;;;;;15.40;9.23;;;13.90;65.30;;;;;;5077034;28;20249;-83
2021/10/25 11:16:14;;;;;;;13.10;7.47;;;14.00;68.70;;;;;;5078241;28;20235;-84
2021/10/25 11:18:43;;;;;;;11.33;6.90;;;14.00;62.10;;;;;;5096361;28;20247;-81
2021/10/25 11:21:16;;;;;;;11.87;7.10;;;14.00;65.10;;;;;;5078098;28;20185;-80
2021/10/25 11:23:55;;;;;;;11.40;7.30;;;13.80;70.60;;;;;;5079278;28;20173;-84
2021/10/25 11:26:28;;;;;;;11.83;7.07;;;13.70;74.40;;;;;;5078558;28;20176;-85
2021/10/25 11:29:13;;;;;;;12.13;7.00;;;13.80;75.50;;;;;;5077864;28;20230;-84
2021/10/25 11:31:46;;;;;;;9.93;7.40;;;13.90;72.40;;;;;;5095194;28;20169;-84
2021/10/25 11:34:21;;;;;;;12.67;8.10;;;14.00;66.90;;;;;;5076890;28;20175;-83
2021/10/25 11:36:53;;;;;;;13.83;7.70;;;14.00;69.00;;;;;;5077613;28;20597;-84
2021/10/25 11:39:48;;;;;;;13.30;7.63;;;13.90;71.60;;;;;;5076899;28;20213;-83
2021/10/25 11:42:22;;;;;;;12.00;8.00;;;13.80;74.50;;;;;;5054918;28;20178;-80
2021/10/25 11:44:53;;;;;;;12.13;7.93;;;13.70;77.70;;;;;;5095159;28;20601;-83
2021/10/25 11:47:20;;;;;;;14.97;7.47;;;13.80;77.00;;;;;;5076678;28;20229;-82
2021/10/25 11:49:46;;;;;;;13.13;8.97;;;14.00;70.50;;;;;;5076862;28;20221;-84
2021/10/25 11:52:12;;;;;;;13.63;8.47;;;14.20;69.70;;;;;;5095396;28;20205;-84
2021/10/25 11:54:48;;;;;;;18.20;8.77;;;14.30;67.80;;;;;;5094830;28;20163;-84
2021/10/25 11:57:15;;;;;;;13.87;9.13;;;14.40;66.40;;;;;;5087760;28;20182;-83
2021/10/25 11:59:40;;;;;;;16.90;9.20;;;14.50;62.40;;;;;;5113509;28;20222;-81
2021/10/25 12:02:14;;;;;;;15.43;8.77;;;14.50;62.20;;;;;;5124084;28;20162;-81
2021/10/25 12:04:45;;;;;;;15.90;9.30;;;14.40;62.90;;;;;;5129079;28;20242;-83
2021/10/25 12:07:12;;;;;;;18.37;9.17;;;14.50;61.80;;;;;;5115860;28;20221;-81
2021/10/25 12:09:37;;;;;;;13.60;8.20;;;14.60;60.20;;;;;;5114542;28;20190;-84
2021/10/25 12:12:08;;;;;;;15.63;7.47;;;14.50;59.50;;;;;;5101176;28;20174;-83
2021/10/25 12:14:37;;;;;;;10.50;7.33;;;14.40;61.80;;;;;;5118043;28;20173;-85
2021/10/25 12:17:04;;;;;;;11.30;7.57;;;14.50;62.80;;;;;;5114737;28;20185;-82
2021/10/25 12:19:30;;;;;;;15.67;8.47;;;14.60;57.30;;;;;;5114771;28;20195;-81
2021/10/25 12:22:10;;;;;;;16.80;7.93;;;14.70;58.70;;;;;;5113406;28;20162;-84
2021/10/25 12:24:39;;;;;;;12.03;7.80;;;14.70;58.60;;;;;;5113064;28;20200;-82
2021/10/25 12:27:06;;;;;;;11.57;7.40;;;14.70;56.50;;;;;;5113802;28;20176;-83
2021/10/25 12:29:32;;;;;;;12.77;7.77;;;14.80;56.30;;;;;;5098195;28;20183;-81
2021/10/25 12:32:11;;;;;;;15.10;8.10;;;14.70;59.00;;;;;;5128177;28;20225;-80
2021/10/25 12:34:57;;;;;;;13.73;8.03;;;14.80;57.80;;;;;;5115544;28;20267;-84
2021/10/25 12:37:31;;;;;;;12.93;7.67;;;14.80;59.10;;;;;;5103174;28;20201;-82
2021/10/25 12:39:58;;;;;;;13.60;9.00;;;14.90;56.30;;;;;;5114421;28;20212;-82
2021/10/25 12:42:27;;;;;;;16.23;8.70;;;14.80;56.40;;;;;;5115137;28;20217;-83
2021/10/25 12:44:54;;;;;;;14.20;8.73;;;14.90;58.20;;;;;;5100256;28;20178;-82
2021/10/25 12:47:25;;;;;;;16.07;9.87;;;14.90;58.50;;;;;;5116345;28;20181;-80
2021/10/25 12:49:56;;;;;;;14.93;10.30;;;14.90;58.90;;;;;;5106946;28;20216;-81
2021/10/25 12:52:28;;;;;;;19.33;11.57;;;14.80;60.30;;;;;;5118872;28;20173;-84
2021/10/25 12:55:02;;;;;;;21.17;13.87;;;14.80;62.60;;;;;;5095705;28;20278;-81
2021/10/25 12:57:34;;;;;;;22.57;12.13;;;14.60;65.20;;;;;;5114758;28;20244;-82
2021/10/25 13:00:08;;;;;;;20.33;12.63;;;14.60;68.60;;;;;;5105300;28;20230;-81
2021/10/25 13:03:01;;;;;;;20.90;13.20;;;14.50;71.80;;;;;;5130406;28;20175;-83
2021/10/25 13:05:33;;;;;;;20.77;13.83;;;14.40;74.40;;;;;;5097634;28;20211;-82
2021/10/25 13:08:04;;;;;;;20.03;13.60;;;14.50;75.30;;;;;;5095735;28;20168;-83
2021/10/25 13:10:33;;;;;;;21.57;13.57;;;14.60;73.00;;;;;;5094867;28;20209;-82
2021/10/25 13:13:00;;;;;;;21.47;14.10;;;14.60;74.20;;;;;;5099901;28;20175;-82
2021/10/25 13:15:27;;;;;;;20.80;12.83;;;14.60;74.20;;;;;;5096168;28;20178;-82
2021/10/25 13:17:55;;;;;;;19.33;11.53;;;14.60;73.80;;;;;;5102302;28;20268;-82
2021/10/25 13:20:24;;;;;;;18.37;11.87;;;14.50;76.70;;;;;;5096500;28;20218;-81
2021/10/25 13:22:56;;;;;;;18.80;12.73;;;14.60;73.20;;;;;;5095807;28;20180;-84
2021/10/25 13:25:23;;;;;;;16.90;11.67;;;14.60;74.90;;;;;;5115178;28;20171;-81
2021/10/25 13:27:50;;;;;;;17.47;13.33;;;14.70;70.90;;;;;;5096354;28;20168;-82
2021/10/25 13:30:18;;;;;;;18.17;13.37;;;14.80;72.10;;;;;;5096576;28;20188;-83
2021/10/25 13:32:44;;;;;;;20.60;13.80;;;14.70;73.20;;;;;;5116166;28;20181;-81
2021/10/25 13:35:12;;;;;;;22.87;14.70;;;14.70;73.40;;;;;;5119249;28;20168;-83
2021/10/25 13:37:38;;;;;;;23.13;14.27;;;14.70;73.00;;;;;;5101155;28;20170;-82
2021/10/25 13:40:06;;;;;;;24.13;15.33;;;14.80;74.80;;;;;;5118700;28;20207;-83
2021/10/25 13:42:33;;;;;;;19.40;14.97;;;14.80;76.30;;;;;;5118614;28;20174;-84
2021/10/25 13:44:59;;;;;;;21.90;16.23;;;14.80;76.20;;;;;;5100875;28;20169;-81
2021/10/25 13:47:26;;;;;;;19.37;14.37;;;15.00;73.50;;;;;;5101844;28;20184;-83
2021/10/25 13:49:56;;;;;;;19.87;13.20;;;15.10;70.00;;;;;;5117534;27;20630;-83
2021/10/25 13:52:25;;;;;;;16.87;12.47;;;15.10;71.20;;;;;;5119561;28;20323;-84
2021/10/25 13:54:54;;;;;;;13.90;11.07;;;15.00;71.90;;;;;;5120831;28;20682;-83
2021/10/25 13:57:22;;;;;;;17.90;10.03;;;14.90;73.80;;;;;;5113919;28;20281;-81
2021/10/25 13:59:49;;;;;;;12.90;10.40;;;14.80;74.80;;;;;;5098675;28;20272;-81
2021/10/25 14:02:16;;;;;;;12.87;9.20;;;14.80;77.00;;;;;;5116996;28;20182;-81
2021/10/25 14:04:51;;;;;;;11.90;9.20;;;14.70;78.90;;;;;;5116428;28;20185;-81
2021/10/25 14:07:22;;;;;;;17.30;9.80;;;14.80;77.60;;;;;;5116755;28;20261;-83
2021/10/25 14:09:54;;;;;;;10.73;8.73;;;14.90;77.30;;;;;;5117041;28;20179;-85
2021/10/25 14:12:24;;;;;;;11.67;7.93;;;15.00;72.70;;;;;;5098648;28;20174;-83
2021/10/25 14:14:51;;;;;;;8.30;7.00;;;14.90;70.90;;;;;;5115253;28;20198;-82
2021/10/25 14:17:18;;;;;;;14.93;8.53;;;14.70;74.50;;;;;;5116214;28;20561;-83
2021/10/25 14:19:44;;;;;;;14.37;8.13;;;14.50;79.90;;;;;;5116101;28;20188;-82
2021/10/25 14:22:11;;;;;;;10.77;7.53;;;14.50;83.10;;;;;;5097273;28;20173;-84
2021/10/25 14:24:39;;;;;;;11.67;8.33;;;14.50;82.20;;;;;;5114447;28;20176;-80
2021/10/25 14:27:05;;;;;;;11.07;7.67;;;14.40;84.30;;;;;;5086140;28;20163;-83
2021/10/25 14:29:31;;;;;;;10.23;7.93;;;14.30;85.70;;;;;;5116309;28;20167;-82
2021/10/25 14:31:57;;;;;;;10.70;8.73;;;14.40;84.70;;;;;;5116072;28;20164;-83